createdAt,value
2018-08-20T00:02:09.243Z,21.10
2018-08-20T00:07:07.082Z,20.90
2018-08-20T00:12:04.203Z,20.90
2018-08-20T00:16:58.368Z,20.90
2018-08-20T00:21:53.276Z,20.80
2018-08-20T00:26:47.737Z,20.70
2018-08-20T00:31:42.862Z,20.70
2018-08-20T00:36:37.063Z,20.70
2018-08-20T00:41:31.767Z,20.60
2018-08-20T00:46:27.280Z,20.50
2018-08-20T00:51:21.471Z,20.50
2018-08-20T00:56:15.158Z,20.50
2018-08-20T01:01:09.577Z,20.50
2018-08-20T01:06:04.651Z,20.50
2018-08-20T01:10:59.262Z,20.40
2018-08-20T01:15:52.999Z,20.20
2018-08-20T01:20:47.668Z,20.10
2018-08-20T01:25:41.628Z,20.20
2018-08-20T01:30:35.793Z,20.10
2018-08-20T01:35:30.731Z,20.00
2018-08-20T01:40:25.396Z,20.00
2018-08-20T01:45:19.600Z,19.90
2018-08-20T01:50:13.444Z,19.90
2018-08-20T01:55:08.062Z,19.80
2018-08-20T02:00:09.616Z,19.80
2018-08-20T02:05:07.835Z,19.70
2018-08-20T02:10:03.957Z,19.70
2018-08-20T02:15:00.164Z,19.60
2018-08-20T02:19:54.504Z,19.50
2018-08-20T02:24:48.423Z,19.40
2018-08-20T02:29:42.457Z,19.30
2018-08-20T02:34:37.472Z,19.30
2018-08-20T02:39:31.688Z,19.30
2018-08-20T02:44:26.137Z,19.10
2018-08-20T02:49:27.378Z,19.10
2018-08-20T02:54:22.435Z,19.10
2018-08-20T02:59:16.281Z,19.10
2018-08-20T03:04:10.483Z,19.00
2018-08-20T03:09:10.594Z,19.00
2018-08-20T03:14:05.871Z,19.00
2018-08-20T03:19:07.343Z,18.90
2018-08-20T03:24:01.607Z,18.90
2018-08-20T03:28:55.814Z,18.80
2018-08-20T03:33:50.771Z,18.80
2018-08-20T03:38:45.862Z,18.80
2018-08-20T03:43:40.364Z,18.70
2018-08-20T03:48:34.660Z,18.60
2018-08-20T03:53:29.932Z,18.50
2018-08-20T03:58:24.049Z,18.40
2018-08-20T04:03:18.862Z,18.40
2018-08-20T04:08:13.504Z,18.40
2018-08-20T04:13:09.570Z,18.30
2018-08-20T04:18:04.677Z,18.40
2018-08-20T04:22:59.635Z,18.40
2018-08-20T04:27:54.726Z,18.50
2018-08-20T04:32:49.631Z,18.60
2018-08-20T04:37:43.784Z,18.70
2018-08-20T04:42:39.804Z,18.80
2018-08-20T04:47:35.307Z,19.00
2018-08-20T04:52:30.431Z,19.30
2018-08-20T04:57:25.767Z,20.70
2018-08-20T05:02:20.459Z,21.80
2018-08-20T05:07:18.747Z,22.00
2018-08-20T05:12:13.291Z,21.70
2018-08-20T05:17:08.076Z,22.10
2018-08-20T05:22:03.287Z,22.90
2018-08-20T05:26:58.859Z,23.60
2018-08-20T05:31:54.329Z,24.80
2018-08-20T05:36:48.104Z,25.10
2018-08-20T05:41:43.706Z,24.60
2018-08-20T05:46:37.763Z,24.40
2018-08-20T05:51:47.401Z,25.80
2018-08-20T05:56:41.695Z,28.30
2018-08-20T06:01:44.516Z,28.40
2018-08-20T06:06:41.369Z,28.80
2018-08-20T06:11:36.301Z,28.70
2018-08-20T06:16:30.359Z,29.30
2018-08-20T06:21:25.041Z,31.30
2018-08-20T06:26:19.847Z,32.60
2018-08-20T06:31:13.719Z,33.20
2018-08-20T06:36:08.107Z,35.10
2018-08-20T06:41:03.348Z,35.00
2018-08-20T06:45:57.758Z,35.40
2018-08-20T06:50:53.097Z,36.10
2018-08-20T06:55:49.796Z,35.00
2018-08-20T07:00:44.844Z,34.60
2018-08-20T07:05:39.891Z,32.00
2018-08-20T07:10:41.117Z,31.50
2018-08-20T07:15:35.136Z,32.00
2018-08-20T07:20:31.339Z,31.10
2018-08-20T07:25:25.761Z,30.20
2018-08-20T07:30:21.021Z,30.00
2018-08-20T07:35:17.082Z,31.50
2018-08-20T07:40:12.393Z,34.00
2018-08-20T07:45:07.235Z,36.80
2018-08-20T07:50:07.107Z,38.30
2018-08-20T07:55:03.053Z,36.70
2018-08-20T07:59:59.564Z,35.50
2018-08-20T08:04:54.643Z,34.00
2018-08-20T08:09:49.283Z,32.70
2018-08-20T08:14:44.540Z,31.90
2018-08-20T08:19:39.182Z,32.30
2018-08-20T08:24:34.064Z,33.80
2018-08-20T08:29:31.347Z,35.30
2018-08-20T08:34:27.422Z,36.20
2018-08-20T08:39:21.864Z,37.60
2018-08-20T08:44:17.666Z,39.30
2018-08-20T08:49:15.372Z,39.90
2018-08-20T08:54:10.015Z,41.70
2018-08-20T08:59:08.575Z,42.40
2018-08-20T09:04:02.845Z,43.90
2018-08-20T09:08:57.612Z,44.40
2018-08-20T09:13:52.356Z,44.70
2018-08-20T09:18:54.110Z,44.20
2018-08-20T09:23:56.605Z,43.70
2018-08-20T09:28:58.929Z,43.70
2018-08-20T09:33:55.717Z,44.30
2018-08-20T09:38:50.398Z,45.10
2018-08-20T09:43:45.311Z,45.80
2018-08-20T09:48:40.309Z,45.70
2018-08-20T09:53:43.960Z,45.30
2018-08-20T09:58:48.924Z,45.80
2018-08-20T10:03:46.742Z,45.80
2018-08-20T10:08:44.294Z,46.40
2018-08-20T10:13:39.608Z,46.20
2018-08-20T10:18:34.348Z,45.80
2018-08-20T10:23:29.036Z,45.20
2018-08-20T10:28:24.644Z,45.90
2018-08-20T10:33:19.356Z,45.20
2018-08-20T10:38:13.653Z,44.70
2018-08-20T10:43:07.712Z,45.90
2018-08-20T10:48:03.784Z,46.10
2018-08-20T10:52:58.547Z,44.00
2018-08-20T10:57:53.934Z,43.20
2018-08-20T11:02:49.184Z,41.90
2018-08-20T11:07:42.921Z,42.70
2018-08-20T11:12:37.169Z,42.70
2018-08-20T11:17:46.313Z,41.40
2018-08-20T11:22:42.457Z,41.50
2018-08-20T11:27:44.502Z,39.80
2018-08-20T11:32:38.821Z,38.60
2018-08-20T11:37:34.982Z,37.40
2018-08-20T11:42:29.505Z,35.60
2018-08-20T11:47:23.766Z,34.80
2018-08-20T11:52:17.554Z,34.30
2018-08-20T11:57:13.223Z,34.50
2018-08-20T12:02:09.273Z,33.50
2018-08-20T12:07:06.013Z,33.80
2018-08-20T12:12:04.666Z,33.60
2018-08-20T12:16:58.871Z,33.50
2018-08-20T12:21:54.029Z,33.10
2018-08-20T12:26:48.592Z,33.00
2018-08-20T12:31:50.370Z,33.30
2018-08-20T12:36:46.156Z,33.60
2018-08-20T12:41:40.694Z,33.40
2018-08-20T12:46:35.469Z,32.80
2018-08-20T12:51:30.129Z,32.80
2018-08-20T12:56:24.509Z,32.90
2018-08-20T13:01:19.128Z,33.00
2018-08-20T13:06:13.416Z,32.50
2018-08-20T13:11:07.784Z,32.20
2018-08-20T13:16:02.334Z,32.50
2018-08-20T13:20:56.275Z,32.00
2018-08-20T13:25:50.446Z,31.90
2018-08-20T13:31:00.016Z,31.70
2018-08-20T13:35:54.783Z,31.80
2018-08-20T13:40:49.582Z,32.00
2018-08-20T13:45:46.406Z,32.00
2018-08-20T13:50:40.462Z,31.60
2018-08-20T13:55:34.772Z,31.70
2018-08-20T14:00:28.977Z,31.70
2018-08-20T14:05:23.204Z,31.70
2018-08-20T14:10:17.257Z,31.50
2018-08-20T14:15:13.211Z,31.60
2018-08-20T14:20:11.301Z,31.60
2018-08-20T14:25:05.210Z,31.60
2018-08-20T14:30:01.583Z,31.50
2018-08-20T14:34:55.844Z,31.30
2018-08-20T14:39:50.175Z,31.40
2018-08-20T14:44:45.425Z,31.30
2018-08-20T14:49:40.070Z,31.00
2018-08-20T14:54:34.113Z,30.90
2018-08-20T14:59:29.289Z,30.50
2018-08-20T15:04:23.448Z,29.90
2018-08-20T15:09:18.346Z,29.90
2018-08-20T15:14:12.405Z,29.80
2018-08-20T15:19:06.729Z,29.80
2018-08-20T15:24:01.029Z,29.80
2018-08-20T15:28:56.532Z,29.80
2018-08-20T15:33:50.474Z,29.60
2018-08-20T15:38:45.061Z,29.40
2018-08-20T15:43:40.461Z,29.30
2018-08-20T15:48:34.712Z,29.00
2018-08-20T15:53:29.209Z,28.90
2018-08-20T15:58:23.917Z,28.70
2018-08-20T16:03:18.654Z,28.50
2018-08-20T16:08:13.427Z,28.30
2018-08-20T16:13:07.900Z,28.20
2018-08-20T16:18:03.002Z,28.10
2018-08-20T16:22:57.908Z,28.00
2018-08-20T16:27:52.600Z,27.80
2018-08-20T16:32:48.102Z,27.70
2018-08-20T16:37:43.381Z,27.50
2018-08-20T16:42:37.856Z,27.50
2018-08-20T16:47:35.435Z,27.50
2018-08-20T16:52:30.988Z,27.40
2018-08-20T16:57:27.619Z,27.30
2018-08-20T17:02:27.022Z,27.20
2018-08-20T17:07:21.960Z,27.20
2018-08-20T17:12:16.776Z,27.10
2018-08-20T17:17:11.226Z,27.00
2018-08-20T17:22:09.772Z,26.90
2018-08-20T17:27:08.468Z,26.90
2018-08-20T17:32:06.407Z,26.70
2018-08-20T17:37:01.226Z,26.60
2018-08-20T17:41:56.018Z,26.50
2018-08-20T17:46:58.663Z,26.30
2018-08-20T17:51:52.953Z,26.10
2018-08-20T17:56:47.357Z,26.00
2018-08-20T18:01:41.891Z,25.90
2018-08-20T18:06:52.356Z,25.80
2018-08-20T18:11:50.540Z,25.70
2018-08-20T18:16:46.423Z,25.50
2018-08-20T18:21:41.392Z,25.50
2018-08-20T18:26:42.796Z,25.50
2018-08-20T18:31:37.247Z,25.40
2018-08-20T18:36:40.804Z,25.30
2018-08-20T18:42:18.056Z,25.20
2018-08-20T18:47:15.131Z,25.20
2018-08-20T18:52:11.394Z,25.10
2018-08-20T18:57:08.236Z,24.90
2018-08-20T19:02:04.348Z,24.70
2018-08-20T19:07:04.236Z,24.50
2018-08-20T19:11:59.972Z,24.30
2018-08-20T19:16:54.396Z,24.20
2018-08-20T19:21:49.871Z,24.00
2018-08-20T19:26:51.377Z,23.90
2018-08-20T19:31:45.756Z,23.80
2018-08-20T19:36:40.367Z,23.60
2018-08-20T19:41:34.837Z,23.50
2018-08-20T19:46:34.016Z,23.40
2018-08-20T19:51:29.084Z,23.30
2018-08-20T19:56:24.650Z,23.20
2018-08-20T20:01:19.234Z,23.20
2018-08-20T20:06:14.310Z,23.20
2018-08-20T20:11:17.472Z,23.30
2018-08-20T20:16:12.402Z,23.30
2018-08-20T20:21:14.257Z,23.40
2018-08-20T20:26:08.991Z,23.40
2018-08-20T20:31:07.195Z,23.40
2018-08-20T20:36:03.297Z,23.50
2018-08-20T20:40:57.507Z,23.50
2018-08-20T20:45:59.807Z,23.60
2018-08-20T20:50:55.734Z,23.60
2018-08-20T20:55:49.942Z,23.60
2018-08-20T21:00:46.849Z,23.60
2018-08-20T21:05:40.831Z,23.60
2018-08-20T21:10:41.338Z,23.50
2018-08-20T21:15:35.541Z,23.60
2018-08-20T21:20:31.596Z,23.50
2018-08-20T21:25:25.696Z,23.60
2018-08-20T21:30:22.459Z,23.50
2018-08-20T21:35:16.645Z,23.60
2018-08-20T21:40:16.079Z,23.50
2018-08-20T21:45:10.093Z,23.50
2018-08-20T21:50:04.826Z,23.50
2018-08-20T21:54:59.345Z,23.50
2018-08-20T22:00:04.506Z,23.50
2018-08-20T22:05:03.365Z,23.40
2018-08-20T22:10:06.343Z,23.40
2018-08-20T22:15:01.111Z,23.40
2018-08-20T22:19:55.663Z,23.40
2018-08-20T22:24:54.978Z,23.40
2018-08-20T22:29:50.228Z,23.40
2018-08-20T22:34:53.378Z,23.40
2018-08-20T22:39:59.466Z,23.40
2018-08-20T22:45:00.766Z,23.40
2018-08-20T22:49:55.256Z,23.30
2018-08-20T22:54:49.236Z,23.30
2018-08-20T22:59:43.635Z,23.30
2018-08-20T23:04:38.232Z,23.30
2018-08-20T23:09:33.143Z,23.20
2018-08-20T23:14:27.034Z,23.30
2018-08-20T23:19:21.045Z,23.20
2018-08-20T23:24:16.059Z,23.20
2018-08-20T23:29:10.360Z,23.10
2018-08-20T23:34:11.997Z,23.20
2018-08-20T23:39:09.624Z,23.20
2018-08-20T23:44:05.351Z,23.10
2018-08-20T23:48:59.431Z,23.10
2018-08-20T23:54:02.888Z,23.10
2018-08-20T23:58:56.960Z,23.00
